createdAt,value
2019-03-31T00:00:29.372Z,60.00
2019-03-31T00:02:58.841Z,59.80
2019-03-31T00:05:28.295Z,59.90
2019-03-31T00:07:57.766Z,60.30
2019-03-31T00:10:27.305Z,59.90
2019-03-31T00:12:56.700Z,59.80
2019-03-31T00:15:26.185Z,59.80
2019-03-31T00:17:55.761Z,60.30
2019-03-31T00:20:25.197Z,60.80
2019-03-31T00:22:55.025Z,61.20
2019-03-31T00:25:24.536Z,61.90
2019-03-31T00:27:53.970Z,61.60
2019-03-31T00:30:23.839Z,61.60
2019-03-31T00:32:53.260Z,61.80
2019-03-31T00:35:22.661Z,62.90
2019-03-31T00:37:52.073Z,62.50
2019-03-31T00:40:21.513Z,63.20
2019-03-31T00:42:50.980Z,63.90
2019-03-31T00:45:20.594Z,63.50
2019-03-31T00:47:50.013Z,64.60
2019-03-31T00:50:19.420Z,65.10
2019-03-31T00:52:48.873Z,65.60
2019-03-31T00:55:18.437Z,64.90
2019-03-31T00:57:48.108Z,64.10
2019-03-31T01:00:37.927Z,66.20
2019-03-31T01:03:08.131Z,68.10
2019-03-31T01:05:40.292Z,67.80
2019-03-31T01:08:10.284Z,67.40
2019-03-31T01:10:40.660Z,68.30
2019-03-31T01:13:10.134Z,66.70
2019-03-31T01:15:39.816Z,66.80
2019-03-31T01:18:09.955Z,66.60
2019-03-31T01:20:39.897Z,66.50
2019-03-31T01:23:09.568Z,67.50
2019-03-31T01:25:39.057Z,67.90
2019-03-31T01:28:08.665Z,68.30
2019-03-31T01:30:38.153Z,69.50
2019-03-31T01:33:07.838Z,68.10
2019-03-31T01:35:37.374Z,68.00
2019-03-31T01:38:06.897Z,67.10
2019-03-31T01:40:36.514Z,66.10
2019-03-31T01:43:06.529Z,65.70
2019-03-31T01:45:35.931Z,65.50
2019-03-31T01:48:05.522Z,65.20
2019-03-31T01:50:34.988Z,64.90
2019-03-31T01:53:04.427Z,64.80
2019-03-31T01:55:33.914Z,66.40
2019-03-31T01:58:04.054Z,66.60
2019-03-31T02:00:38.754Z,65.60
2019-03-31T02:03:08.326Z,65.20
2019-03-31T02:05:38.266Z,65.90
2019-03-31T02:08:08.022Z,66.80
2019-03-31T02:10:37.483Z,66.20
2019-03-31T02:13:06.865Z,65.50
2019-03-31T02:15:36.374Z,65.80
2019-03-31T02:18:05.849Z,65.30
2019-03-31T02:20:35.396Z,65.10
2019-03-31T02:23:05.054Z,64.90
2019-03-31T02:25:34.568Z,64.80
2019-03-31T02:28:03.988Z,65.00
2019-03-31T02:30:33.452Z,66.00
2019-03-31T02:33:03.029Z,68.00
2019-03-31T02:35:32.430Z,69.60
2019-03-31T02:38:01.874Z,70.30
2019-03-31T02:40:31.336Z,71.20
2019-03-31T02:43:00.742Z,69.30
2019-03-31T02:45:30.345Z,70.20
2019-03-31T02:47:59.737Z,72.10
2019-03-31T02:50:49.899Z,72.00
2019-03-31T02:53:20.657Z,72.30
2019-03-31T02:55:51.154Z,72.50
2019-03-31T02:58:20.929Z,73.60
2019-03-31T03:00:50.518Z,72.20
2019-03-31T03:03:20.396Z,72.20
2019-03-31T03:05:50.846Z,71.80
2019-03-31T03:08:21.317Z,71.50
2019-03-31T03:10:52.763Z,70.40
2019-03-31T03:13:24.708Z,70.30
2019-03-31T03:16:06.154Z,71.40
2019-03-31T03:18:35.719Z,71.90
2019-03-31T03:21:05.206Z,73.50
2019-03-31T03:23:34.610Z,73.80
2019-03-31T03:26:04.189Z,72.60
2019-03-31T03:28:33.688Z,72.50
2019-03-31T03:31:03.452Z,72.10
2019-03-31T03:33:34.977Z,71.50
2019-03-31T03:36:04.428Z,71.50
2019-03-31T03:38:33.880Z,71.50
2019-03-31T03:41:03.467Z,70.90
2019-03-31T03:43:33.032Z,70.80
2019-03-31T03:46:02.429Z,71.40
2019-03-31T03:48:32.253Z,70.40
2019-03-31T03:51:01.757Z,70.30
2019-03-31T03:53:31.445Z,69.00
2019-03-31T03:56:01.484Z,70.00
2019-03-31T03:58:31.148Z,69.90
2019-03-31T04:01:01.134Z,70.10
2019-03-31T04:03:32.304Z,70.80
2019-03-31T04:06:02.216Z,71.40
2019-03-31T04:08:31.623Z,71.20
2019-03-31T04:11:09.086Z,70.30
2019-03-31T04:13:38.718Z,70.50
2019-03-31T04:16:08.604Z,70.80
2019-03-31T04:18:39.625Z,70.70
2019-03-31T04:21:09.182Z,70.90
2019-03-31T04:23:38.768Z,70.30
2019-03-31T04:26:08.243Z,71.80
2019-03-31T04:28:37.703Z,71.40
2019-03-31T04:31:07.263Z,70.60
2019-03-31T04:33:50.570Z,70.50
2019-03-31T04:36:07.846Z,70.80
2019-03-31T04:38:37.248Z,70.20
2019-03-31T04:41:06.730Z,70.80
2019-03-31T04:43:36.157Z,70.40
2019-03-31T04:46:05.716Z,70.00
2019-03-31T04:48:35.228Z,69.80
2019-03-31T04:51:04.724Z,69.90
2019-03-31T04:53:34.283Z,69.90
2019-03-31T04:56:03.740Z,70.80
2019-03-31T04:58:33.260Z,71.20
2019-03-31T05:01:02.949Z,71.60
2019-03-31T05:03:32.384Z,72.20
2019-03-31T05:06:01.862Z,73.00
2019-03-31T05:08:31.399Z,72.50
2019-03-31T05:11:01.118Z,73.90
2019-03-31T05:13:30.603Z,73.30
2019-03-31T05:16:00.181Z,73.70
2019-03-31T05:18:29.792Z,72.90
2019-03-31T05:21:01.204Z,72.30
2019-03-31T05:23:30.770Z,72.40
2019-03-31T05:26:00.237Z,71.60
2019-03-31T05:28:29.778Z,73.80
2019-03-31T05:30:59.413Z,73.00
2019-03-31T05:33:29.120Z,71.90
2019-03-31T05:35:58.552Z,73.00
2019-03-31T05:38:29.736Z,72.10
2019-03-31T05:40:59.332Z,73.10
2019-03-31T05:43:30.586Z,74.40
2019-03-31T05:46:01.010Z,75.50
2019-03-31T05:48:30.497Z,76.00
2019-03-31T05:51:00.014Z,76.50
2019-03-31T05:53:29.472Z,77.00
2019-03-31T05:55:58.871Z,76.50
2019-03-31T05:58:28.272Z,77.00
2019-03-31T06:00:57.878Z,76.80
2019-03-31T06:03:27.428Z,76.70
2019-03-31T06:05:56.924Z,76.70
2019-03-31T06:08:26.552Z,75.40
2019-03-31T06:10:56.034Z,76.30
2019-03-31T06:13:25.522Z,75.90
2019-03-31T06:15:54.988Z,76.80
2019-03-31T06:18:24.415Z,76.50
2019-03-31T06:20:53.891Z,76.40
2019-03-31T06:23:23.390Z,77.20
2019-03-31T06:25:52.820Z,77.20
2019-03-31T06:28:22.381Z,77.30
2019-03-31T06:30:51.836Z,77.70
2019-03-31T06:33:21.488Z,76.60
2019-03-31T06:35:51.042Z,76.50
2019-03-31T06:38:20.462Z,75.70
2019-03-31T06:40:54.627Z,76.90
2019-03-31T06:43:24.099Z,76.80
2019-03-31T06:45:53.669Z,76.50
2019-03-31T06:48:23.134Z,77.60
2019-03-31T06:50:52.782Z,78.00
2019-03-31T06:53:22.203Z,77.80
2019-03-31T06:55:52.301Z,77.80
2019-03-31T06:58:21.688Z,78.50
2019-03-31T07:00:51.312Z,78.20
2019-03-31T07:03:20.775Z,77.80
2019-03-31T07:05:50.270Z,77.20
2019-03-31T07:08:19.779Z,78.70
2019-03-31T07:10:49.325Z,78.50
2019-03-31T07:13:18.836Z,77.90
2019-03-31T07:15:48.355Z,78.80
2019-03-31T07:18:17.776Z,78.60
2019-03-31T07:20:47.313Z,79.70
2019-03-31T07:23:16.853Z,78.90
2019-03-31T07:25:46.257Z,80.00
2019-03-31T07:28:15.688Z,80.60
2019-03-31T07:30:45.107Z,80.40
2019-03-31T07:33:14.619Z,79.80
2019-03-31T07:35:44.287Z,80.10
2019-03-31T07:38:13.669Z,79.40
2019-03-31T07:40:43.324Z,80.60
2019-03-31T07:43:12.970Z,79.70
2019-03-31T07:45:42.552Z,79.50
2019-03-31T07:48:11.986Z,79.90
2019-03-31T07:50:41.462Z,80.50
2019-03-31T07:53:11.294Z,80.00
2019-03-31T07:55:40.729Z,79.90
2019-03-31T07:58:10.177Z,79.80
2019-03-31T08:00:39.749Z,79.70
2019-03-31T08:03:09.259Z,79.80
2019-03-31T08:05:38.802Z,79.90
2019-03-31T08:08:08.351Z,79.70
2019-03-31T08:10:39.701Z,79.60
2019-03-31T08:13:09.115Z,79.70
2019-03-31T08:15:38.709Z,79.70
2019-03-31T08:18:08.115Z,79.40
2019-03-31T08:20:37.565Z,78.90
2019-03-31T08:23:07.175Z,79.70
2019-03-31T08:25:36.620Z,79.70
2019-03-31T08:28:06.103Z,78.90
2019-03-31T08:30:35.537Z,78.70
2019-03-31T08:33:05.171Z,78.40
2019-03-31T08:35:46.765Z,78.70
2019-03-31T08:38:05.791Z,78.40
2019-03-31T08:40:35.685Z,78.40
2019-03-31T08:43:05.585Z,78.20
2019-03-31T08:45:35.084Z,78.10
2019-03-31T08:48:04.733Z,78.10
2019-03-31T08:50:35.001Z,78.40
2019-03-31T08:53:04.767Z,78.60
2019-03-31T08:55:34.167Z,78.70
2019-03-31T08:58:03.669Z,79.40
2019-03-31T09:00:46.991Z,78.70
2019-03-31T09:03:16.511Z,78.50
2019-03-31T09:05:46.033Z,78.20
2019-03-31T09:08:15.463Z,78.20
2019-03-31T09:10:44.905Z,79.00
2019-03-31T09:13:14.409Z,78.40
2019-03-31T09:15:43.989Z,78.20
2019-03-31T09:18:13.428Z,78.20
2019-03-31T09:20:42.891Z,78.10
2019-03-31T09:23:12.525Z,78.00
2019-03-31T09:25:41.939Z,78.20
2019-03-31T09:28:11.519Z,77.80
2019-03-31T09:30:41.060Z,78.10
2019-03-31T09:33:10.429Z,78.10
2019-03-31T09:35:39.967Z,78.10
2019-03-31T09:38:09.633Z,78.60
2019-03-31T09:40:39.143Z,78.80
2019-03-31T09:43:08.585Z,79.00
2019-03-31T09:45:38.260Z,78.80
2019-03-31T09:48:07.853Z,78.90
2019-03-31T09:50:37.303Z,78.70
2019-03-31T09:53:06.911Z,78.30
2019-03-31T09:55:36.375Z,78.70
2019-03-31T09:58:05.893Z,79.80
2019-03-31T10:00:49.855Z,79.30
2019-03-31T10:03:20.657Z,79.30
2019-03-31T10:05:50.615Z,79.10
2019-03-31T10:08:22.198Z,79.00
2019-03-31T10:10:51.567Z,78.90
2019-03-31T10:13:21.075Z,79.50
2019-03-31T10:15:50.657Z,78.70
2019-03-31T10:18:20.279Z,78.70
2019-03-31T10:20:49.999Z,78.70
2019-03-31T10:23:19.461Z,78.50
2019-03-31T10:25:49.035Z,77.90
2019-03-31T10:28:18.481Z,77.50
2019-03-31T10:30:47.985Z,77.50
2019-03-31T10:33:17.465Z,77.20
2019-03-31T10:35:46.990Z,77.40
2019-03-31T10:38:16.463Z,77.20
2019-03-31T10:40:45.907Z,77.50
2019-03-31T10:43:15.348Z,77.60
2019-03-31T10:45:44.912Z,77.60
2019-03-31T10:48:21.026Z,77.40
2019-03-31T10:50:45.596Z,76.90
2019-03-31T10:53:15.663Z,77.10
2019-03-31T10:55:45.069Z,76.50
2019-03-31T10:58:15.089Z,76.60
2019-03-31T11:00:44.948Z,76.30
2019-03-31T11:03:14.611Z,76.90
2019-03-31T11:05:44.159Z,76.90
2019-03-31T11:08:13.568Z,76.70
2019-03-31T11:10:43.013Z,76.70
2019-03-31T11:13:12.434Z,75.90
2019-03-31T11:15:41.847Z,75.70
2019-03-31T11:18:11.545Z,75.50
2019-03-31T11:20:41.297Z,75.80
2019-03-31T11:23:22.213Z,75.20
2019-03-31T11:25:51.720Z,75.50
2019-03-31T11:28:21.136Z,75.90
2019-03-31T11:30:50.628Z,76.50
2019-03-31T11:33:20.128Z,76.00
2019-03-31T11:35:49.790Z,75.70
2019-03-31T11:38:19.356Z,75.70
2019-03-31T11:40:48.755Z,75.70
2019-03-31T11:43:18.509Z,75.50
2019-03-31T11:45:48.049Z,76.90
2019-03-31T11:48:17.687Z,76.00
2019-03-31T11:50:47.358Z,74.70
2019-03-31T11:53:17.655Z,76.40
2019-03-31T11:55:47.029Z,75.20
2019-03-31T11:58:16.448Z,75.00
2019-03-31T12:00:47.581Z,74.50
2019-03-31T12:03:18.952Z,75.30
2019-03-31T12:05:48.488Z,74.40
2019-03-31T12:08:17.940Z,74.40
2019-03-31T12:10:47.420Z,73.50
2019-03-31T12:13:16.927Z,74.50
2019-03-31T12:15:46.429Z,74.50
2019-03-31T12:18:16.006Z,73.60
2019-03-31T12:20:45.422Z,72.90
2019-03-31T12:23:14.952Z,73.70
2019-03-31T12:25:44.364Z,74.30
2019-03-31T12:28:13.825Z,74.00
2019-03-31T12:30:43.300Z,73.20
2019-03-31T12:33:12.964Z,74.20
2019-03-31T12:35:44.155Z,73.40
2019-03-31T12:38:13.588Z,73.60
2019-03-31T12:40:43.092Z,73.20
2019-03-31T12:43:12.774Z,73.70
2019-03-31T12:45:43.256Z,73.50
2019-03-31T12:48:13.133Z,73.20
2019-03-31T12:50:42.770Z,73.90
2019-03-31T12:53:12.232Z,74.40
2019-03-31T12:55:41.835Z,73.90
2019-03-31T12:58:11.332Z,74.20
2019-03-31T13:00:40.975Z,73.70
2019-03-31T13:03:10.759Z,73.60
2019-03-31T13:05:40.271Z,73.30
2019-03-31T13:08:09.662Z,73.60
2019-03-31T13:10:39.170Z,74.00
2019-03-31T13:13:08.837Z,72.80
2019-03-31T13:15:38.898Z,73.00
2019-03-31T13:18:08.494Z,72.90
2019-03-31T13:20:38.272Z,73.40
2019-03-31T13:23:08.666Z,73.30
2019-03-31T13:25:38.180Z,72.80
2019-03-31T13:28:07.605Z,74.00
2019-03-31T13:30:37.214Z,73.80
2019-03-31T13:33:06.968Z,73.40
2019-03-31T13:35:36.472Z,72.60
2019-03-31T13:38:11.299Z,73.20
2019-03-31T13:40:37.120Z,72.50
2019-03-31T13:43:06.574Z,72.70
2019-03-31T13:45:36.092Z,72.10
2019-03-31T13:48:05.597Z,72.00
2019-03-31T13:50:35.106Z,72.80
2019-03-31T13:53:04.852Z,71.10
2019-03-31T13:55:34.560Z,71.40
2019-03-31T13:58:05.082Z,71.60
2019-03-31T14:00:38.062Z,72.00
2019-03-31T14:03:07.793Z,72.50
2019-03-31T14:05:37.404Z,71.40
2019-03-31T14:08:06.941Z,72.20
2019-03-31T14:10:36.415Z,71.50
2019-03-31T14:13:06.215Z,70.80
2019-03-31T14:15:35.880Z,70.40
2019-03-31T14:18:05.637Z,70.70
2019-03-31T14:20:35.340Z,70.20
2019-03-31T14:23:04.955Z,71.00
2019-03-31T14:25:34.616Z,69.80
2019-03-31T14:28:04.045Z,71.20
2019-03-31T14:30:33.571Z,69.70
2019-03-31T14:33:03.218Z,70.50
2019-03-31T14:35:32.720Z,70.30
2019-03-31T14:38:02.292Z,70.40
2019-03-31T14:40:31.798Z,70.80
2019-03-31T14:43:01.349Z,69.50
2019-03-31T14:45:33.264Z,70.30
2019-03-31T14:48:02.873Z,70.80
2019-03-31T14:50:33.904Z,70.60
2019-03-31T14:53:03.933Z,70.80
2019-03-31T14:55:33.639Z,70.20
2019-03-31T14:58:03.315Z,70.90
2019-03-31T15:00:32.971Z,70.30
2019-03-31T15:03:02.377Z,70.40
2019-03-31T15:05:32.031Z,70.30
2019-03-31T15:08:01.416Z,70.70
2019-03-31T15:10:30.902Z,70.40
2019-03-31T15:13:00.325Z,70.70
2019-03-31T15:15:29.752Z,71.10
2019-03-31T15:17:59.231Z,71.40
2019-03-31T15:20:28.755Z,71.10
2019-03-31T15:22:58.359Z,71.10
2019-03-31T15:25:27.960Z,71.30
2019-03-31T15:27:57.453Z,71.50
2019-03-31T15:30:26.969Z,72.40
2019-03-31T15:32:56.481Z,70.90
2019-03-31T15:35:25.974Z,70.60
2019-03-31T15:37:55.534Z,71.30
2019-03-31T15:40:25.088Z,71.20
2019-03-31T15:42:54.522Z,70.90
2019-03-31T15:45:24.149Z,70.70
2019-03-31T15:47:53.545Z,70.00
2019-03-31T15:50:22.977Z,69.80
2019-03-31T15:52:52.560Z,70.30
2019-03-31T15:55:21.978Z,69.40
2019-03-31T15:57:51.570Z,69.00
2019-03-31T16:00:21.212Z,69.50
2019-03-31T16:02:50.710Z,68.90
2019-03-31T16:05:20.290Z,69.50
2019-03-31T16:07:49.714Z,70.50
2019-03-31T16:10:19.334Z,70.30
2019-03-31T16:12:48.956Z,69.10
2019-03-31T16:15:18.796Z,69.40
2019-03-31T16:17:48.365Z,68.80
2019-03-31T16:20:17.936Z,69.50
2019-03-31T16:22:47.554Z,69.80
2019-03-31T16:25:24.681Z,69.00
2019-03-31T16:27:54.140Z,69.70
2019-03-31T16:30:23.685Z,70.00
2019-03-31T16:32:53.162Z,68.80
2019-03-31T16:35:22.572Z,68.40
2019-03-31T16:37:52.049Z,69.60
2019-03-31T16:40:21.788Z,69.30
2019-03-31T16:42:51.221Z,69.30
2019-03-31T16:45:20.974Z,69.30
2019-03-31T16:47:50.455Z,68.80
2019-03-31T16:50:19.888Z,68.60
2019-03-31T16:52:52.494Z,68.80
2019-03-31T16:55:20.382Z,68.90
2019-03-31T16:57:49.986Z,68.90
2019-03-31T17:00:19.706Z,68.50
2019-03-31T17:02:49.255Z,68.90
2019-03-31T17:05:22.072Z,67.40
2019-03-31T17:07:49.750Z,68.40
2019-03-31T17:10:20.977Z,66.80
2019-03-31T17:12:50.423Z,66.80
2019-03-31T17:15:19.898Z,67.70
2019-03-31T17:17:49.508Z,67.10
2019-03-31T17:20:18.988Z,67.50
2019-03-31T17:22:48.486Z,66.90
2019-03-31T17:25:17.924Z,66.90
2019-03-31T17:27:47.359Z,67.00
2019-03-31T17:30:17.148Z,67.50
2019-03-31T17:32:46.559Z,67.60
2019-03-31T17:35:15.984Z,67.00
2019-03-31T17:37:45.702Z,67.00
2019-03-31T17:40:15.160Z,67.10
2019-03-31T17:42:44.555Z,66.60
2019-03-31T17:45:17.178Z,67.40
2019-03-31T17:47:45.026Z,67.20
2019-03-31T17:50:14.822Z,67.20
2019-03-31T17:52:44.273Z,66.80
2019-03-31T17:55:13.757Z,67.00
2019-03-31T17:57:43.361Z,67.00
2019-03-31T18:00:13.456Z,67.10
2019-03-31T18:02:43.094Z,67.30
2019-03-31T18:05:12.874Z,67.40
2019-03-31T18:07:42.315Z,67.40
2019-03-31T18:10:20.617Z,67.50
2019-03-31T18:12:43.137Z,67.60
2019-03-31T18:15:12.916Z,67.80
2019-03-31T18:17:42.487Z,67.70
2019-03-31T18:20:11.997Z,67.70
2019-03-31T18:22:41.418Z,67.60
2019-03-31T18:25:11.060Z,67.60
2019-03-31T18:27:40.475Z,67.80
2019-03-31T18:30:10.294Z,68.10
2019-03-31T18:32:39.725Z,68.10
2019-03-31T18:35:09.287Z,68.00
2019-03-31T18:37:38.861Z,67.90
2019-03-31T18:40:08.827Z,68.20
2019-03-31T18:42:39.895Z,68.20
2019-03-31T18:45:09.687Z,68.30
2019-03-31T18:47:39.141Z,68.80
2019-03-31T18:50:09.235Z,68.60
2019-03-31T18:52:38.784Z,68.60
2019-03-31T18:55:09.868Z,68.40
2019-03-31T18:57:57.180Z,68.30
2019-03-31T19:00:46.228Z,68.20
2019-03-31T19:03:26.167Z,68.70
2019-03-31T19:06:12.360Z,68.90
2019-03-31T19:08:46.250Z,68.70
2019-03-31T19:11:26.836Z,68.70
2019-03-31T19:14:07.155Z,69.10
2019-03-31T19:16:38.620Z,69.10
2019-03-31T19:19:17.795Z,69.30
2019-03-31T19:21:53.873Z,69.30
2019-03-31T19:24:25.027Z,69.70
2019-03-31T19:26:58.983Z,69.40
2019-03-31T19:29:33.114Z,69.60
2019-03-31T19:32:13.445Z,70.20
2019-03-31T19:34:53.719Z,70.40
2019-03-31T19:37:38.095Z,70.50
2019-03-31T19:40:26.010Z,70.20
2019-03-31T19:43:02.961Z,70.30
2019-03-31T19:45:50.557Z,69.70
2019-03-31T19:48:30.819Z,70.30
2019-03-31T19:51:01.891Z,70.10
2019-03-31T19:53:33.067Z,70.30
2019-03-31T19:56:16.469Z,70.10
2019-03-31T19:58:53.518Z,70.60
2019-03-31T20:01:33.636Z,70.40
2019-03-31T20:04:04.779Z,70.30
2019-03-31T20:06:47.888Z,70.60
2019-03-31T20:09:24.650Z,69.80
2019-03-31T20:12:01.753Z,70.20
2019-03-31T20:14:38.931Z,70.20
2019-03-31T20:17:15.917Z,70.00
2019-03-31T20:20:02.019Z,70.20
2019-03-31T20:22:36.293Z,71.00
2019-03-31T20:25:26.770Z,70.70
2019-03-31T20:28:00.639Z,70.80
2019-03-31T20:30:48.129Z,70.00
2019-03-31T20:33:19.348Z,69.70
2019-03-31T20:36:06.871Z,69.70
2019-03-31T20:38:55.642Z,69.40
2019-03-31T20:41:26.978Z,69.40
2019-03-31T20:43:56.835Z,69.80
2019-03-31T20:46:26.411Z,69.80
2019-03-31T20:48:55.964Z,69.50
2019-03-31T20:51:25.377Z,70.50
2019-03-31T20:53:54.845Z,70.30
2019-03-31T20:56:24.315Z,70.60
2019-03-31T20:58:53.691Z,69.90
2019-03-31T21:01:23.221Z,69.80
2019-03-31T21:03:52.591Z,70.00
2019-03-31T21:06:22.129Z,69.80
2019-03-31T21:08:51.577Z,69.90
2019-03-31T21:11:21.072Z,70.00
2019-03-31T21:13:52.291Z,69.50
2019-03-31T21:16:21.787Z,70.30
2019-03-31T21:18:51.240Z,69.60
2019-03-31T21:21:20.667Z,69.50
2019-03-31T21:23:50.167Z,69.50
2019-03-31T21:26:19.584Z,69.90
2019-03-31T21:28:49.055Z,70.00
2019-03-31T21:31:18.462Z,70.50
2019-03-31T21:33:47.911Z,70.30
2019-03-31T21:36:17.485Z,70.70
2019-03-31T21:38:47.023Z,71.10
2019-03-31T21:41:16.551Z,71.10
2019-03-31T21:43:46.165Z,70.70
2019-03-31T21:46:15.569Z,70.40
2019-03-31T21:48:44.997Z,71.20
2019-03-31T21:51:14.449Z,70.70
2019-03-31T21:53:43.848Z,70.60
2019-03-31T21:56:13.611Z,70.70
2019-03-31T21:58:43.097Z,70.20
2019-03-31T22:01:13.363Z,70.70
2019-03-31T22:03:42.845Z,70.00
2019-03-31T22:06:12.454Z,69.80
2019-03-31T22:08:42.106Z,70.90
2019-03-31T22:11:11.488Z,70.00
2019-03-31T22:13:40.980Z,70.80
2019-03-31T22:16:10.527Z,70.00
2019-03-31T22:18:40.403Z,70.30
2019-03-31T22:21:09.901Z,70.60
2019-03-31T22:23:39.396Z,70.00
2019-03-31T22:26:08.947Z,70.40
2019-03-31T22:28:38.373Z,70.00
2019-03-31T22:31:07.905Z,70.40
2019-03-31T22:33:37.464Z,69.30
2019-03-31T22:36:22.516Z,69.80
2019-03-31T22:38:53.560Z,70.10
2019-03-31T22:41:23.183Z,69.90
2019-03-31T22:43:52.656Z,69.50
2019-03-31T22:46:22.195Z,69.40
2019-03-31T22:48:51.597Z,69.40
2019-03-31T22:51:21.072Z,69.50
2019-03-31T22:53:50.501Z,70.80
2019-03-31T22:56:20.002Z,71.10
2019-03-31T22:58:49.420Z,70.90
2019-03-31T23:01:18.911Z,70.90
2019-03-31T23:03:48.292Z,70.30
2019-03-31T23:06:18.023Z,70.30
2019-03-31T23:08:47.405Z,70.50
2019-03-31T23:11:16.963Z,69.80
2019-03-31T23:13:48.131Z,70.00
2019-03-31T23:16:17.564Z,69.90
2019-03-31T23:18:47.158Z,69.60
2019-03-31T23:21:16.597Z,69.30
2019-03-31T23:23:47.712Z,69.90
2019-03-31T23:26:17.139Z,69.90
2019-03-31T23:28:46.755Z,69.90
2019-03-31T23:31:19.227Z,69.70
2019-03-31T23:33:48.823Z,69.70
2019-03-31T23:36:18.279Z,70.20
2019-03-31T23:38:47.830Z,70.20
2019-03-31T23:41:17.232Z,70.30
2019-03-31T23:43:46.842Z,70.10
2019-03-31T23:46:17.211Z,69.60
2019-03-31T23:48:46.715Z,69.40
2019-03-31T23:51:16.142Z,69.40
2019-03-31T23:53:45.738Z,69.60
2019-03-31T23:56:15.156Z,69.20
2019-03-31T23:58:44.636Z,69.40
